sensor_id;sensor_type;location;lat;lon;timestamp;temperature;humidity
60717;DHT22;46566;52.700;6.192;2024-03-23T00:53:13;7.40;99.90
60717;DHT22;46566;52.700;6.192;2024-03-23T00:55:41;7.40;99.90
60717;DHT22;46566;52.700;6.192;2024-03-23T00:58:07;7.40;99.90
60717;DHT22;46566;52.700;6.192;2024-03-23T01:00:33;7.40;99.90
60717;DHT22;46566;52.700;6.192;2024-03-23T01:02:58;7.30;99.90
60717;DHT22;46566;52.700;6.192;2024-03-23T01:05:24;7.30;99.90
60717;DHT22;46566;52.700;6.192;2024-03-23T01:07:50;7.30;99.90
60717;DHT22;46566;52.700;6.192;2024-03-23T01:10:15;7.20;99.90
60717;DHT22;46566;52.700;6.192;2024-03-23T01:12:41;7.20;99.90
60717;DHT22;46566;52.700;6.192;2024-03-23T01:15:07;7.20;99.90
60717;DHT22;46566;52.700;6.192;2024-03-23T01:17:33;7.20;99.90
60717;DHT22;46566;52.700;6.192;2024-03-23T01:19:58;7.20;99.90
60717;DHT22;46566;52.700;6.192;2024-03-23T01:22:24;7.20;99.90
60717;DHT22;46566;52.700;6.192;2024-03-23T01:24:50;7.20;99.90
60717;DHT22;46566;52.700;6.192;2024-03-23T01:27:16;7.10;99.90
60717;DHT22;46566;52.700;6.192;2024-03-23T01:29:42;7.20;99.90
60717;DHT22;46566;52.700;6.192;2024-03-23T01:32:07;7.10;99.90
60717;DHT22;46566;52.700;6.192;2024-03-23T01:34:33;7.10;99.90
60717;DHT22;46566;52.700;6.192;2024-03-23T01:36:59;7.10;99.90
60717;DHT22;46566;52.700;6.192;2024-03-23T01:39:25;7.10;99.90
60717;DHT22;46566;52.700;6.192;2024-03-23T01:41:50;7.00;99.90
60717;DHT22;46566;52.700;6.192;2024-03-23T01:44:16;7.00;99.90
60717;DHT22;46566;52.700;6.192;2024-03-23T01:46:43;7.00;99.90
60717;DHT22;46566;52.700;6.192;2024-03-23T01:49:10;7.00;99.90
60717;DHT22;46566;52.700;6.192;2024-03-23T01:51:37;7.00;99.90
60717;DHT22;46566;52.700;6.192;2024-03-23T01:54:03;6.90;99.90
60717;DHT22;46566;52.700;6.192;2024-03-23T01:56:35;6.90;99.90
60717;DHT22;46566;52.700;6.192;2024-03-23T01:59:05;7.00;99.90
60717;DHT22;46566;52.700;6.192;2024-03-23T02:01:32;6.90;99.90
60717;DHT22;46566;52.700;6.192;2024-03-23T02:03:58;6.90;99.90
60717;DHT22;46566;52.700;6.192;2024-03-23T02:06:24;6.90;99.90
60717;DHT22;46566;52.700;6.192;2024-03-23T02:08:50;6.80;99.90
60717;DHT22;46566;52.700;6.192;2024-03-23T02:11:16;6.90;99.90
60717;DHT22;46566;52.700;6.192;2024-03-23T02:13:42;6.90;99.90
60717;DHT22;46566;52.700;6.192;2024-03-23T02:16:08;6.90;99.90
60717;DHT22;46566;52.700;6.192;2024-03-23T02:18:34;6.80;99.90
60717;DHT22;46566;52.700;6.192;2024-03-23T02:21:00;6.80;99.90
60717;DHT22;46566;52.700;6.192;2024-03-23T02:23:26;6.80;99.90
60717;DHT22;46566;52.700;6.192;2024-03-23T02:25:51;6.80;99.90
60717;DHT22;46566;52.700;6.192;2024-03-23T02:28:19;6.70;99.90
60717;DHT22;46566;52.700;6.192;2024-03-23T02:30:45;6.70;99.90
60717;DHT22;46566;52.700;6.192;2024-03-23T02:33:11;6.60;99.90
60717;DHT22;46566;52.700;6.192;2024-03-23T02:35:37;6.60;99.90
60717;DHT22;46566;52.700;6.192;2024-03-23T02:38:02;6.60;99.90
60717;DHT22;46566;52.700;6.192;2024-03-23T02:40:28;6.60;99.90
60717;DHT22;46566;52.700;6.192;2024-03-23T02:42:54;6.50;99.90
60717;DHT22;46566;52.700;6.192;2024-03-23T02:45:20;6.50;99.90
60717;DHT22;46566;52.700;6.192;2024-03-23T02:47:46;6.50;99.90
60717;DHT22;46566;52.700;6.192;2024-03-23T02:50:12;6.40;99.90
60717;DHT22;46566;52.700;6.192;2024-03-23T02:52:37;6.40;99.90
60717;DHT22;46566;52.700;6.192;2024-03-23T02:55:04;6.40;99.90
60717;DHT22;46566;52.700;6.192;2024-03-23T02:57:30;6.30;99.90
60717;DHT22;46566;52.700;6.192;2024-03-23T02:59:55;6.30;99.90
60717;DHT22;46566;52.700;6.192;2024-03-23T03:02:21;6.20;99.90
60717;DHT22;46566;52.700;6.192;2024-03-23T03:04:47;6.20;99.90
60717;DHT22;46566;52.700;6.192;2024-03-23T03:07:13;6.20;99.90
60717;DHT22;46566;52.700;6.192;2024-03-23T03:09:39;6.20;99.90
60717;DHT22;46566;52.700;6.192;2024-03-23T03:12:06;6.10;99.90
60717;DHT22;46566;52.700;6.192;2024-03-23T03:14:32;6.10;99.90
60717;DHT22;46566;52.700;6.192;2024-03-23T03:16:57;6.10;99.90
60717;DHT22;46566;52.700;6.192;2024-03-23T03:19:23;6.10;99.90
60717;DHT22;46566;52.700;6.192;2024-03-23T03:21:49;6.20;99.90
60717;DHT22;46566;52.700;6.192;2024-03-23T03:24:15;6.10;99.90
60717;DHT22;46566;52.700;6.192;2024-03-23T03:26:40;6.10;99.90
60717;DHT22;46566;52.700;6.192;2024-03-23T03:29:06;6.10;99.90
60717;DHT22;46566;52.700;6.192;2024-03-23T03:31:32;6.20;99.90
60717;DHT22;46566;52.700;6.192;2024-03-23T03:33:58;6.20;99.90
60717;DHT22;46566;52.700;6.192;2024-03-23T03:36:23;6.10;99.90
60717;DHT22;46566;52.700;6.192;2024-03-23T03:38:49;6.10;99.90
60717;DHT22;46566;52.700;6.192;2024-03-23T03:41:15;6.20;99.90
60717;DHT22;46566;52.700;6.192;2024-03-23T03:43:41;6.10;99.90
60717;DHT22;46566;52.700;6.192;2024-03-23T03:46:06;6.20;99.90
60717;DHT22;46566;52.700;6.192;2024-03-23T03:48:33;6.10;99.90
60717;DHT22;46566;52.700;6.192;2024-03-23T03:51:00;6.10;99.90
60717;DHT22;46566;52.700;6.192;2024-03-23T03:53:25;6.20;99.90
60717;DHT22;46566;52.700;6.192;2024-03-23T03:55:52;6.20;99.90
60717;DHT22;46566;52.700;6.192;2024-03-23T03:58:17;6.20;99.90
60717;DHT22;46566;52.700;6.192;2024-03-23T04:00:43;6.10;99.90
60717;DHT22;46566;52.700;6.192;2024-03-23T04:03:09;6.10;99.90
60717;DHT22;46566;52.700;6.192;2024-03-23T04:05:35;6.10;99.90
60717;DHT22;46566;52.700;6.192;2024-03-23T04:08:00;6.10;99.90
60717;DHT22;46566;52.700;6.192;2024-03-23T04:10:26;6.10;99.90
60717;DHT22;46566;52.700;6.192;2024-03-23T04:12:52;6.10;99.90
60717;DHT22;46566;52.700;6.192;2024-03-23T04:15:19;6.10;99.90
60717;DHT22;46566;52.700;6.192;2024-03-23T04:17:45;6.00;99.90
60717;DHT22;46566;52.700;6.192;2024-03-23T04:20:11;6.00;99.90
60717;DHT22;46566;52.700;6.192;2024-03-23T04:22:39;6.00;99.90
60717;DHT22;46566;52.700;6.192;2024-03-23T04:25:05;6.00;99.90
60717;DHT22;46566;52.700;6.192;2024-03-23T04:27:39;5.90;99.90
60717;DHT22;46566;52.700;6.192;2024-03-23T04:30:06;5.80;99.90
60717;DHT22;46566;52.700;6.192;2024-03-23T04:32:39;5.80;99.90
60717;DHT22;46566;52.700;6.192;2024-03-23T04:35:05;5.70;99.90
60717;DHT22;46566;52.700;6.192;2024-03-23T04:37:32;5.70;99.90
60717;DHT22;46566;52.700;6.192;2024-03-23T04:40:00;5.60;99.90
60717;DHT22;46566;52.700;6.192;2024-03-23T04:42:27;5.60;99.90
60717;DHT22;46566;52.700;6.192;2024-03-23T04:44:53;5.50;99.90
60717;DHT22;46566;52.700;6.192;2024-03-23T04:47:19;5.50;99.90
60717;DHT22;46566;52.700;6.192;2024-03-23T04:49:45;5.40;99.90
60717;DHT22;46566;52.700;6.192;2024-03-23T04:52:10;5.40;99.90
60717;DHT22;46566;52.700;6.192;2024-03-23T04:54:36;5.40;99.90
60717;DHT22;46566;52.700;6.192;2024-03-23T04:57:02;5.40;99.90
60717;DHT22;46566;52.700;6.192;2024-03-23T04:59:28;5.50;99.90
60717;DHT22;46566;52.700;6.192;2024-03-23T05:01:54;5.50;99.90
60717;DHT22;46566;52.700;6.192;2024-03-23T05:04:19;5.50;99.90
60717;DHT22;46566;52.700;6.192;2024-03-23T05:06:45;5.50;99.90
60717;DHT22;46566;52.700;6.192;2024-03-23T05:09:11;5.50;99.90
60717;DHT22;46566;52.700;6.192;2024-03-23T05:11:41;5.60;99.90
60717;DHT22;46566;52.700;6.192;2024-03-23T05:14:10;5.60;99.90
60717;DHT22;46566;52.700;6.192;2024-03-23T05:16:36;5.60;99.90
60717;DHT22;46566;52.700;6.192;2024-03-23T05:19:02;5.60;99.90
60717;DHT22;46566;52.700;6.192;2024-03-23T05:21:27;5.60;99.90
60717;DHT22;46566;52.700;6.192;2024-03-23T05:23:56;5.60;99.90
60717;DHT22;46566;52.700;6.192;2024-03-23T05:26:22;5.60;99.90
60717;DHT22;46566;52.700;6.192;2024-03-23T05:28:48;5.60;99.90
60717;DHT22;46566;52.700;6.192;2024-03-23T05:31:27;5.60;99.90
60717;DHT22;46566;52.700;6.192;2024-03-23T05:33:53;5.60;99.90
60717;DHT22;46566;52.700;6.192;2024-03-23T05:36:19;5.60;99.90
60717;DHT22;46566;52.700;6.192;2024-03-23T05:38:44;5.60;99.90
60717;DHT22;46566;52.700;6.192;2024-03-23T05:41:10;5.60;99.90
60717;DHT22;46566;52.700;6.192;2024-03-23T05:43:36;5.60;99.90
60717;DHT22;46566;52.700;6.192;2024-03-23T05:46:02;5.70;99.90
60717;DHT22;46566;52.700;6.192;2024-03-23T05:48:28;5.70;99.90
60717;DHT22;46566;52.700;6.192;2024-03-23T05:50:56;5.70;99.90
60717;DHT22;46566;52.700;6.192;2024-03-23T05:53:21;5.70;99.90
60717;DHT22;46566;52.700;6.192;2024-03-23T05:55:47;5.70;99.90
60717;DHT22;46566;52.700;6.192;2024-03-23T05:58:15;5.60;99.90
60717;DHT22;46566;52.700;6.192;2024-03-23T06:00:41;5.70;99.90
60717;DHT22;46566;52.700;6.192;2024-03-23T06:03:08;5.70;99.90
60717;DHT22;46566;52.700;6.192;2024-03-23T06:05:34;5.60;99.90
60717;DHT22;46566;52.700;6.192;2024-03-23T06:07:59;5.70;99.90
60717;DHT22;46566;52.700;6.192;2024-03-23T06:10:25;5.70;99.90
60717;DHT22;46566;52.700;6.192;2024-03-23T06:12:51;5.70;99.90
60717;DHT22;46566;52.700;6.192;2024-03-23T06:15:21;5.70;99.90
60717;DHT22;46566;52.700;6.192;2024-03-23T06:17:48;5.70;99.90
60717;DHT22;46566;52.700;6.192;2024-03-23T06:20:14;5.60;99.90
60717;DHT22;46566;52.700;6.192;2024-03-23T06:22:40;5.60;99.90
60717;DHT22;46566;52.700;6.192;2024-03-23T06:25:06;5.60;99.90
60717;DHT22;46566;52.700;6.192;2024-03-23T06:27:32;5.50;99.90
60717;DHT22;46566;52.700;6.192;2024-03-23T06:29:59;5.50;99.90
60717;DHT22;46566;52.700;6.192;2024-03-23T06:32:24;5.50;99.90
60717;DHT22;46566;52.700;6.192;2024-03-23T06:34:50;5.40;99.90
60717;DHT22;46566;52.700;6.192;2024-03-23T06:37:16;5.40;99.90
60717;DHT22;46566;52.700;6.192;2024-03-23T06:39:42;5.40;99.90
60717;DHT22;46566;52.700;6.192;2024-03-23T06:42:08;5.40;99.90
60717;DHT22;46566;52.700;6.192;2024-03-23T06:44:33;5.40;99.90
60717;DHT22;46566;52.700;6.192;2024-03-23T06:46:59;5.40;99.90
60717;DHT22;46566;52.700;6.192;2024-03-23T06:49:25;5.40;99.90
60717;DHT22;46566;52.700;6.192;2024-03-23T06:51:51;5.50;99.90
60717;DHT22;46566;52.700;6.192;2024-03-23T06:54:19;5.50;99.90
60717;DHT22;46566;52.700;6.192;2024-03-23T06:56:45;5.60;99.90
60717;DHT22;46566;52.700;6.192;2024-03-23T06:59:10;5.70;99.90
60717;DHT22;46566;52.700;6.192;2024-03-23T07:01:36;5.70;99.90
60717;DHT22;46566;52.700;6.192;2024-03-23T07:04:02;5.90;99.90
60717;DHT22;46566;52.700;6.192;2024-03-23T07:06:30;6.00;99.90
60717;DHT22;46566;52.700;6.192;2024-03-23T07:08:55;6.10;99.90
60717;DHT22;46566;52.700;6.192;2024-03-23T07:11:22;6.30;99.90
60717;DHT22;46566;52.700;6.192;2024-03-23T07:13:52;6.40;99.90
60717;DHT22;46566;52.700;6.192;2024-03-23T07:16:22;6.40;99.90
60717;DHT22;46566;52.700;6.192;2024-03-23T07:18:50;6.30;99.90
60717;DHT22;46566;52.700;6.192;2024-03-23T07:21:15;6.20;99.90
60717;DHT22;46566;52.700;6.192;2024-03-23T07:23:44;6.10;99.90
60717;DHT22;46566;52.700;6.192;2024-03-23T07:26:11;6.10;99.90
60717;DHT22;46566;52.700;6.192;2024-03-23T07:28:37;6.10;99.90
60717;DHT22;46566;52.700;6.192;2024-03-23T07:31:05;6.10;99.90
60717;DHT22;46566;52.700;6.192;2024-03-23T07:33:31;6.10;99.90
60717;DHT22;46566;52.700;6.192;2024-03-23T07:35:58;6.00;99.90
60717;DHT22;46566;52.700;6.192;2024-03-23T07:38:26;6.00;99.90
60717;DHT22;46566;52.700;6.192;2024-03-23T07:40:52;6.10;99.90
60717;DHT22;46566;52.700;6.192;2024-03-23T07:43:22;6.10;99.90
60717;DHT22;46566;52.700;6.192;2024-03-23T07:45:52;6.20;99.90
60717;DHT22;46566;52.700;6.192;2024-03-23T07:48:18;6.40;99.90
60717;DHT22;46566;52.700;6.192;2024-03-23T07:50:44;6.40;99.90
60717;DHT22;46566;52.700;6.192;2024-03-23T07:53:10;6.40;99.90
60717;DHT22;46566;52.700;6.192;2024-03-23T07:55:35;6.40;99.90
60717;DHT22;46566;52.700;6.192;2024-03-23T07:58:01;6.40;99.90
60717;DHT22;46566;52.700;6.192;2024-03-23T08:00:27;6.40;99.90
60717;DHT22;46566;52.700;6.192;2024-03-23T08:02:53;6.60;99.90
60717;DHT22;46566;52.700;6.192;2024-03-23T08:05:18;6.60;99.90
60717;DHT22;46566;52.700;6.192;2024-03-23T08:07:44;6.70;99.90
60717;DHT22;46566;52.700;6.192;2024-03-23T08:10:10;6.70;99.90
60717;DHT22;46566;52.700;6.192;2024-03-23T08:12:38;6.70;99.90
60717;DHT22;46566;52.700;6.192;2024-03-23T08:15:04;7.70;99.90
60717;DHT22;46566;52.700;6.192;2024-03-23T08:17:30;8.80;99.90
60717;DHT22;46566;52.700;6.192;2024-03-23T08:19:55;8.90;99.90
60717;DHT22;46566;52.700;6.192;2024-03-23T08:22:21;8.60;99.90
60717;DHT22;46566;52.700;6.192;2024-03-23T08:24:47;8.30;99.90
60717;DHT22;46566;52.700;6.192;2024-03-23T08:27:13;8.00;99.90
60717;DHT22;46566;52.700;6.192;2024-03-23T08:29:38;7.70;99.90
60717;DHT22;46566;52.700;6.192;2024-03-23T08:32:04;7.40;99.90
60717;DHT22;46566;52.700;6.192;2024-03-23T08:34:30;7.20;99.90
60717;DHT22;46566;52.700;6.192;2024-03-23T08:36:56;7.10;99.90
60717;DHT22;46566;52.700;6.192;2024-03-23T08:39:21;6.90;99.90
60717;DHT22;46566;52.700;6.192;2024-03-23T08:41:47;7.00;99.90
60717;DHT22;46566;52.700;6.192;2024-03-23T08:44:13;7.40;99.90
60717;DHT22;46566;52.700;6.192;2024-03-23T08:46:39;7.60;99.90
60717;DHT22;46566;52.700;6.192;2024-03-23T08:49:04;7.50;99.90
60717;DHT22;46566;52.700;6.192;2024-03-23T08:51:30;7.40;99.90
60717;DHT22;46566;52.700;6.192;2024-03-23T08:53:56;7.40;99.90
60717;DHT22;46566;52.700;6.192;2024-03-23T08:56:22;8.30;99.90
60717;DHT22;46566;52.700;6.192;2024-03-23T08:58:48;9.60;99.90
60717;DHT22;46566;52.700;6.192;2024-03-23T09:01:13;10.80;99.90
60717;DHT22;46566;52.700;6.192;2024-03-23T09:03:39;11.80;99.90
60717;DHT22;46566;52.700;6.192;2024-03-23T09:06:12;12.70;99.90
60717;DHT22;46566;52.700;6.192;2024-03-23T09:08:39;13.20;99.90
60717;DHT22;46566;52.700;6.192;2024-03-23T09:11:07;13.20;99.90
60717;DHT22;46566;52.700;6.192;2024-03-23T09:13:34;13.20;99.90
60717;DHT22;46566;52.700;6.192;2024-03-23T09:16:00;12.80;99.90
60717;DHT22;46566;52.700;6.192;2024-03-23T09:18:26;12.10;99.90
60717;DHT22;46566;52.700;6.192;2024-03-23T09:20:52;11.60;99.90
60717;DHT22;46566;52.700;6.192;2024-03-23T09:23:20;11.40;99.90
60717;DHT22;46566;52.700;6.192;2024-03-23T09:25:46;11.10;99.90
60717;DHT22;46566;52.700;6.192;2024-03-23T09:28:12;10.90;99.90
60717;DHT22;46566;52.700;6.192;2024-03-23T09:30:37;10.70;99.90
60717;DHT22;46566;52.700;6.192;2024-03-23T09:33:08;10.60;99.90
60717;DHT22;46566;52.700;6.192;2024-03-23T09:35:42;10.50;99.90
60717;DHT22;46566;52.700;6.192;2024-03-23T09:38:10;10.30;99.90
60717;DHT22;46566;52.700;6.192;2024-03-23T09:40:42;10.20;99.90
60717;DHT22;46566;52.700;6.192;2024-03-23T09:43:09;10.30;99.90
60717;DHT22;46566;52.700;6.192;2024-03-23T09:45:41;10.40;99.90
60717;DHT22;46566;52.700;6.192;2024-03-23T09:48:08;10.40;99.90
60717;DHT22;46566;52.700;6.192;2024-03-23T09:53:06;10.10;99.90
60717;DHT22;46566;52.700;6.192;2024-03-23T09:55:32;9.70;99.90
60717;DHT22;46566;52.700;6.192;2024-03-23T09:57:59;9.50;99.90
60717;DHT22;46566;52.700;6.192;2024-03-23T10:00:28;9.40;99.90
60717;DHT22;46566;52.700;6.192;2024-03-23T10:02:58;9.30;99.90
60717;DHT22;46566;52.700;6.192;2024-03-23T10:05:30;9.30;99.90
60717;DHT22;46566;52.700;6.192;2024-03-23T10:10:41;9.60;99.90
60717;DHT22;46566;52.700;6.192;2024-03-23T10:13:07;9.70;99.90
60717;DHT22;46566;52.700;6.192;2024-03-23T10:15:36;9.80;99.90
60717;DHT22;46566;52.700;6.192;2024-03-23T10:18:20;9.90;99.90
60717;DHT22;46566;52.700;6.192;2024-03-23T10:23:32;10.20;99.90
60717;DHT22;46566;52.700;6.192;2024-03-23T10:26:20;10.20;99.90
60717;DHT22;46566;52.700;6.192;2024-03-23T10:28:56;10.40;99.90
60717;DHT22;46566;52.700;6.192;2024-03-23T10:31:34;10.40;99.90
60717;DHT22;46566;52.700;6.192;2024-03-23T10:34:03;10.40;99.90
60717;DHT22;46566;52.700;6.192;2024-03-23T10:36:30;10.60;99.90
60717;DHT22;46566;52.700;6.192;2024-03-23T10:38:56;10.60;99.90
60717;DHT22;46566;52.700;6.192;2024-03-23T10:41:27;10.70;99.90
60717;DHT22;46566;52.700;6.192;2024-03-23T10:43:55;10.80;99.90
60717;DHT22;46566;52.700;6.192;2024-03-23T10:46:23;11.10;99.90
60717;DHT22;46566;52.700;6.192;2024-03-23T10:48:49;11.10;99.90
60717;DHT22;46566;52.700;6.192;2024-03-23T10:51:15;11.20;99.90
60717;DHT22;46566;52.700;6.192;2024-03-23T10:53:41;11.60;99.90
60717;DHT22;46566;52.700;6.192;2024-03-23T10:56:08;11.90;99.90
60717;DHT22;46566;52.700;6.192;2024-03-23T10:58:38;12.40;99.90
60717;DHT22;46566;52.700;6.192;2024-03-23T11:01:04;12.60;99.90
60717;DHT22;46566;52.700;6.192;2024-03-23T11:03:34;12.80;99.90
60717;DHT22;46566;52.700;6.192;2024-03-23T11:06:02;12.70;99.90
60717;DHT22;46566;52.700;6.192;2024-03-23T11:08:39;12.30;99.90
60717;DHT22;46566;52.700;6.192;2024-03-23T11:11:18;12.10;99.90
60717;DHT22;46566;52.700;6.192;2024-03-23T11:13:47;12.00;99.90
60717;DHT22;46566;52.700;6.192;2024-03-23T11:16:23;11.90;99.90
60717;DHT22;46566;52.700;6.192;2024-03-23T11:18:50;11.80;99.90
60717;DHT22;46566;52.700;6.192;2024-03-23T11:21:51;11.80;99.90
60717;DHT22;46566;52.700;6.192;2024-03-23T11:24:17;12.00;99.90
60717;DHT22;46566;52.700;6.192;2024-03-23T11:26:44;12.00;99.90
60717;DHT22;46566;52.700;6.192;2024-03-23T11:29:14;12.10;99.90
60717;DHT22;46566;52.700;6.192;2024-03-23T11:31:51;12.20;99.90
60717;DHT22;46566;52.700;6.192;2024-03-23T11:34:17;12.10;99.90
60717;DHT22;46566;52.700;6.192;2024-03-23T11:36:43;11.90;99.90
60717;DHT22;46566;52.700;6.192;2024-03-23T11:39:18;11.50;99.90
60717;DHT22;46566;52.700;6.192;2024-03-23T11:41:51;11.20;99.90
60717;DHT22;46566;52.700;6.192;2024-03-23T11:44:26;11.10;99.90
60717;DHT22;46566;52.700;6.192;2024-03-23T11:46:52;10.90;99.90
60717;DHT22;46566;52.700;6.192;2024-03-23T11:49:29;10.60;99.90
60717;DHT22;46566;52.700;6.192;2024-03-23T11:51:56;10.40;99.90
60717;DHT22;46566;52.700;6.192;2024-03-23T11:54:23;10.20;99.90
60717;DHT22;46566;52.700;6.192;2024-03-23T11:57:09;9.90;99.90
60717;DHT22;46566;52.700;6.192;2024-03-23T11:59:37;9.50;99.90
60717;DHT22;46566;52.700;6.192;2024-03-23T12:02:11;9.20;99.90
60717;DHT22;46566;52.700;6.192;2024-03-23T12:04:37;9.10;99.90
60717;DHT22;46566;52.700;6.192;2024-03-23T12:07:16;9.10;99.90
60717;DHT22;46566;52.700;6.192;2024-03-23T12:09:45;9.30;99.90
60717;DHT22;46566;52.700;6.192;2024-03-23T12:12:15;9.60;99.90
60717;DHT22;46566;52.700;6.192;2024-03-23T12:14:45;9.90;99.90
60717;DHT22;46566;52.700;6.192;2024-03-23T12:17:15;10.10;99.90
60717;DHT22;46566;52.700;6.192;2024-03-23T12:19:41;10.00;99.90
60717;DHT22;46566;52.700;6.192;2024-03-23T12:22:08;9.80;99.90
60717;DHT22;46566;52.700;6.192;2024-03-23T12:24:34;9.60;99.90
60717;DHT22;46566;52.700;6.192;2024-03-23T12:27:03;9.30;99.90
60717;DHT22;46566;52.700;6.192;2024-03-23T12:29:34;9.00;99.90
60717;DHT22;46566;52.700;6.192;2024-03-23T12:32:01;8.70;99.90
60717;DHT22;46566;52.700;6.192;2024-03-23T12:34:28;8.50;99.90
60717;DHT22;46566;52.700;6.192;2024-03-23T12:36:54;8.40;99.90
60717;DHT22;46566;52.700;6.192;2024-03-23T12:39:20;8.40;99.90
60717;DHT22;46566;52.700;6.192;2024-03-23T12:41:47;8.70;99.90
60717;DHT22;46566;52.700;6.192;2024-03-23T12:44:13;9.00;99.90
60717;DHT22;46566;52.700;6.192;2024-03-23T12:46:43;9.20;99.90
60717;DHT22;46566;52.700;6.192;2024-03-23T12:49:12;9.30;99.90
60717;DHT22;46566;52.700;6.192;2024-03-23T12:51:38;9.30;99.90
60717;DHT22;46566;52.700;6.192;2024-03-23T12:54:04;9.40;99.90
60717;DHT22;46566;52.700;6.192;2024-03-23T12:56:30;9.60;99.90
60717;DHT22;46566;52.700;6.192;2024-03-23T12:58:57;9.80;99.90
60717;DHT22;46566;52.700;6.192;2024-03-23T13:01:23;9.80;99.90
60717;DHT22;46566;52.700;6.192;2024-03-23T13:03:50;9.70;99.90
60717;DHT22;46566;52.700;6.192;2024-03-23T13:06:17;9.60;99.90
60717;DHT22;46566;52.700;6.192;2024-03-23T13:08:47;9.50;99.90
60717;DHT22;46566;52.700;6.192;2024-03-23T13:11:15;9.30;99.90
60717;DHT22;46566;52.700;6.192;2024-03-23T13:13:41;9.30;99.90
60717;DHT22;46566;52.700;6.192;2024-03-23T13:16:07;9.20;99.90
60717;DHT22;46566;52.700;6.192;2024-03-23T13:18:33;9.10;99.90
60717;DHT22;46566;52.700;6.192;2024-03-23T13:20:59;9.00;99.90
60717;DHT22;46566;52.700;6.192;2024-03-23T13:23:25;8.90;99.90
60717;DHT22;46566;52.700;6.192;2024-03-23T13:25:52;9.00;99.90
60717;DHT22;46566;52.700;6.192;2024-03-23T13:28:19;9.30;99.90
60717;DHT22;46566;52.700;6.192;2024-03-23T13:30:54;9.30;99.90
60717;DHT22;46566;52.700;6.192;2024-03-23T13:33:21;8.90;99.90
60717;DHT22;46566;52.700;6.192;2024-03-23T13:35:53;8.50;99.90
60717;DHT22;46566;52.700;6.192;2024-03-23T13:38:21;8.80;99.90
60717;DHT22;46566;52.700;6.192;2024-03-23T13:40:57;9.20;99.90
60717;DHT22;46566;52.700;6.192;2024-03-23T13:43:24;9.60;99.90
60717;DHT22;46566;52.700;6.192;2024-03-23T13:45:53;9.80;99.90
60717;DHT22;46566;52.700;6.192;2024-03-23T13:48:24;10.00;99.90
60717;DHT22;46566;52.700;6.192;2024-03-23T13:51:03;9.90;99.90
60717;DHT22;46566;52.700;6.192;2024-03-23T13:53:29;9.70;99.90
60717;DHT22;46566;52.700;6.192;2024-03-23T13:55:55;9.50;99.90
60717;DHT22;46566;52.700;6.192;2024-03-23T13:58:22;9.30;99.90
60717;DHT22;46566;52.700;6.192;2024-03-23T14:00:49;9.20;99.90
60717;DHT22;46566;52.700;6.192;2024-03-23T14:03:15;9.00;99.90
60717;DHT22;46566;52.700;6.192;2024-03-23T14:05:41;8.70;99.90
60717;DHT22;46566;52.700;6.192;2024-03-23T14:08:10;8.40;99.90
60717;DHT22;46566;52.700;6.192;2024-03-23T14:10:40;8.20;99.90
60717;DHT22;46566;52.700;6.192;2024-03-23T14:13:06;8.10;99.90
60717;DHT22;46566;52.700;6.192;2024-03-23T14:15:32;8.00;99.90
60717;DHT22;46566;52.700;6.192;2024-03-23T14:17:58;8.00;99.90
60717;DHT22;46566;52.700;6.192;2024-03-23T14:20:24;8.20;99.90
60717;DHT22;46566;52.700;6.192;2024-03-23T14:22:51;8.40;99.90
60717;DHT22;46566;52.700;6.192;2024-03-23T14:25:17;8.60;99.90
60717;DHT22;46566;52.700;6.192;2024-03-23T14:27:46;8.80;99.90
60717;DHT22;46566;52.700;6.192;2024-03-23T14:30:12;8.90;99.90
60717;DHT22;46566;52.700;6.192;2024-03-23T14:32:39;9.20;99.90
60717;DHT22;46566;52.700;6.192;2024-03-23T14:35:06;9.30;99.90
60717;DHT22;46566;52.700;6.192;2024-03-23T14:37:38;9.40;99.90
60717;DHT22;46566;52.700;6.192;2024-03-23T14:40:05;9.40;99.90
60717;DHT22;46566;52.700;6.192;2024-03-23T14:42:31;9.50;99.90
60717;DHT22;46566;52.700;6.192;2024-03-23T14:44:58;9.60;99.90
60717;DHT22;46566;52.700;6.192;2024-03-23T14:47:23;9.50;99.90
60717;DHT22;46566;52.700;6.192;2024-03-23T14:49:49;9.50;99.90
60717;DHT22;46566;52.700;6.192;2024-03-23T14:52:18;9.50;99.90
60717;DHT22;46566;52.700;6.192;2024-03-23T14:54:45;9.40;99.90
60717;DHT22;46566;52.700;6.192;2024-03-23T14:57:11;9.20;99.90
60717;DHT22;46566;52.700;6.192;2024-03-23T14:59:37;9.20;99.90
60717;DHT22;46566;52.700;6.192;2024-03-23T15:02:07;9.10;99.90
60717;DHT22;46566;52.700;6.192;2024-03-23T15:04:34;9.00;99.90
60717;DHT22;46566;52.700;6.192;2024-03-23T15:07:00;8.90;99.90
60717;DHT22;46566;52.700;6.192;2024-03-23T15:09:26;8.70;99.90
60717;DHT22;46566;52.700;6.192;2024-03-23T15:11:52;8.50;99.90
60717;DHT22;46566;52.700;6.192;2024-03-23T15:14:20;8.40;99.90
60717;DHT22;46566;52.700;6.192;2024-03-23T15:16:46;8.40;99.90
60717;DHT22;46566;52.700;6.192;2024-03-23T15:19:14;8.40;99.90
60717;DHT22;46566;52.700;6.192;2024-03-23T15:21:40;8.50;99.90
60717;DHT22;46566;52.700;6.192;2024-03-23T15:24:33;8.50;99.90
60717;DHT22;46566;52.700;6.192;2024-03-23T15:27:00;8.60;99.90
60717;DHT22;46566;52.700;6.192;2024-03-23T15:29:26;8.60;99.90
60717;DHT22;46566;52.700;6.192;2024-03-23T15:31:52;8.50;99.90
60717;DHT22;46566;52.700;6.192;2024-03-23T15:34:43;8.50;99.90
60717;DHT22;46566;52.700;6.192;2024-03-23T15:37:09;8.40;99.90
60717;DHT22;46566;52.700;6.192;2024-03-23T15:39:35;8.40;99.90
60717;DHT22;46566;52.700;6.192;2024-03-23T15:42:00;8.30;99.90
60717;DHT22;46566;52.700;6.192;2024-03-23T15:44:51;8.30;99.90
60717;DHT22;46566;52.700;6.192;2024-03-23T15:47:17;8.30;99.90
60717;DHT22;46566;52.700;6.192;2024-03-23T15:49:44;8.30;99.90
60717;DHT22;46566;52.700;6.192;2024-03-23T15:52:10;8.30;99.90
60717;DHT22;46566;52.700;6.192;2024-03-23T15:55:02;8.30;99.90
60717;DHT22;46566;52.700;6.192;2024-03-23T15:57:32;8.30;99.90
60717;DHT22;46566;52.700;6.192;2024-03-23T15:59:58;8.20;99.90
60717;DHT22;46566;52.700;6.192;2024-03-23T16:02:49;8.20;99.90
60717;DHT22;46566;52.700;6.192;2024-03-23T16:05:15;8.10;99.90
60717;DHT22;46566;52.700;6.192;2024-03-23T16:07:40;8.00;99.90
60717;DHT22;46566;52.700;6.192;2024-03-23T16:10:06;7.90;99.90
60717;DHT22;46566;52.700;6.192;2024-03-23T16:12:50;7.80;99.90
60717;DHT22;46566;52.700;6.192;2024-03-23T16:15:16;7.60;99.90
60717;DHT22;46566;52.700;6.192;2024-03-23T16:17:42;7.60;99.90
60717;DHT22;46566;52.700;6.192;2024-03-23T16:20:07;7.60;99.90
60717;DHT22;46566;52.700;6.192;2024-03-23T16:22:34;7.60;99.90
60717;DHT22;46566;52.700;6.192;2024-03-23T16:25:25;7.60;99.90
60717;DHT22;46566;52.700;6.192;2024-03-23T16:27:51;7.60;99.90
60717;DHT22;46566;52.700;6.192;2024-03-23T16:30:17;7.60;99.90
60717;DHT22;46566;52.700;6.192;2024-03-23T16:32:42;7.60;99.90
60717;DHT22;46566;52.700;6.192;2024-03-23T16:35:33;7.50;99.90
60717;DHT22;46566;52.700;6.192;2024-03-23T16:37:59;7.50;99.90
60717;DHT22;46566;52.700;6.192;2024-03-23T16:40:25;7.50;99.90
60717;DHT22;46566;52.700;6.192;2024-03-23T16:42:51;7.60;99.90
60717;DHT22;46566;52.700;6.192;2024-03-23T16:45:42;7.50;99.90